sensor_id;sensor_type;location;lat;lon;timestamp;pressure;altitude;pressure_sealevel;temperature;humidity
12799;BME280;19250;42.646;26.980;2023-05-10T00:00:45;99468.41;;;11.05;100.00
12799;BME280;19250;42.646;26.980;2023-05-10T00:03:13;99500.69;;;11.12;100.00
12799;BME280;19250;42.646;26.980;2023-05-10T00:05:40;99506.28;;;10.91;100.00
12799;BME280;19250;42.646;26.980;2023-05-10T00:08:07;99499.56;;;10.87;100.00
12799;BME280;19250;42.646;26.980;2023-05-10T00:10:35;99494.22;;;10.87;100.00
12799;BME280;19250;42.646;26.980;2023-05-10T00:13:02;99495.44;;;10.65;100.00
12799;BME280;19250;42.646;26.980;2023-05-10T00:15:31;99494.91;;;10.06;100.00
12799;BME280;19250;42.646;26.980;2023-05-10T00:17:58;99494.63;;;9.99;100.00
12799;BME280;19250;42.646;26.980;2023-05-10T00:20:25;99500.38;;;10.14;100.00
12799;BME280;19250;42.646;26.980;2023-05-10T00:22:52;99492.94;;;10.17;100.00
12799;BME280;19250;42.646;26.980;2023-05-10T00:25:18;99497.19;;;10.47;100.00
12799;BME280;19250;42.646;26.980;2023-05-10T00:27:46;99488.06;;;9.65;100.00
12799;BME280;19250;42.646;26.980;2023-05-10T00:30:13;99490.31;;;9.50;100.00
12799;BME280;19250;42.646;26.980;2023-05-10T00:32:42;99493.41;;;9.74;100.00
12799;BME280;19250;42.646;26.980;2023-05-10T00:35:10;99499.28;;;9.49;100.00
12799;BME280;19250;42.646;26.980;2023-05-10T00:37:37;99491.34;;;8.81;100.00
12799;BME280;19250;42.646;26.980;2023-05-10T00:40:06;99484.63;;;8.26;100.00
12799;BME280;19250;42.646;26.980;2023-05-10T00:42:34;99483.63;;;7.96;100.00
12799;BME280;19250;42.646;26.980;2023-05-10T00:45:01;99480.06;;;7.86;100.00
12799;BME280;19250;42.646;26.980;2023-05-10T00:47:28;99478.84;;;8.41;100.00
12799;BME280;19250;42.646;26.980;2023-05-10T00:49:57;99487.41;;;8.85;100.00
12799;BME280;19250;42.646;26.980;2023-05-10T00:52:26;99477.53;;;9.15;100.00
12799;BME280;19250;42.646;26.980;2023-05-10T00:54:54;99482.28;;;9.12;100.00
12799;BME280;19250;42.646;26.980;2023-05-10T00:57:21;99474.06;;;9.34;100.00
12799;BME280;19250;42.646;26.980;2023-05-10T00:59:49;99483.72;;;9.54;100.00
12799;BME280;19250;42.646;26.980;2023-05-10T01:02:17;99485.69;;;9.43;100.00
12799;BME280;19250;42.646;26.980;2023-05-10T01:04:44;99484.28;;;9.67;100.00
12799;BME280;19250;42.646;26.980;2023-05-10T01:07:13;99488.63;;;9.88;100.00
12799;BME280;19250;42.646;26.980;2023-05-10T01:09:41;99479.63;;;9.89;100.00
12799;BME280;19250;42.646;26.980;2023-05-10T01:12:08;99484.94;;;10.08;100.00
12799;BME280;19250;42.646;26.980;2023-05-10T01:14:36;99483.81;;;10.20;100.00
12799;BME280;19250;42.646;26.980;2023-05-10T01:17:05;99488.56;;;10.26;100.00
12799;BME280;19250;42.646;26.980;2023-05-10T01:19:34;99483.13;;;10.08;100.00
12799;BME280;19250;42.646;26.980;2023-05-10T01:22:09;99485.81;;;9.99;100.00
12799;BME280;19250;42.646;26.980;2023-05-10T01:25:15;99480.94;;;9.84;100.00
12799;BME280;19250;42.646;26.980;2023-05-10T01:28:08;99474.91;;;9.25;100.00
12799;BME280;19250;42.646;26.980;2023-05-10T01:31:06;99400.81;;;9.01;100.00
12799;BME280;19250;42.646;26.980;2023-05-10T01:33:39;99471.00;;;9.29;100.00
12799;BME280;19250;42.646;26.980;2023-05-10T01:36:16;99472.09;;;9.26;100.00
12799;BME280;19250;42.646;26.980;2023-05-10T01:38:59;99473.94;;;9.36;100.00
12799;BME280;19250;42.646;26.980;2023-05-10T01:41:36;99470.00;;;9.40;100.00
12799;BME280;19250;42.646;26.980;2023-05-10T01:44:14;99470.84;;;9.50;100.00
12799;BME280;19250;42.646;26.980;2023-05-10T01:46:49;99468.72;;;9.72;100.00
12799;BME280;19250;42.646;26.980;2023-05-10T01:49:23;99469.28;;;9.85;100.00
12799;BME280;19250;42.646;26.980;2023-05-10T01:51:54;99477.25;;;9.95;100.00
12799;BME280;19250;42.646;26.980;2023-05-10T01:54:27;99478.09;;;9.96;100.00
12799;BME280;19250;42.646;26.980;2023-05-10T01:56:59;99465.66;;;9.67;100.00
12799;BME280;19250;42.646;26.980;2023-05-10T01:59:31;99470.28;;;9.65;100.00
12799;BME280;19250;42.646;26.980;2023-05-10T02:02:02;99471.38;;;9.92;100.00
12799;BME280;19250;42.646;26.980;2023-05-10T02:04:35;99468.59;;;9.74;100.00
12799;BME280;19250;42.646;26.980;2023-05-10T02:07:03;99471.13;;;9.66;100.00
12799;BME280;19250;42.646;26.980;2023-05-10T02:09:31;99470.00;;;9.59;100.00
12799;BME280;19250;42.646;26.980;2023-05-10T02:12:00;99466.38;;;9.60;100.00
12799;BME280;19250;42.646;26.980;2023-05-10T02:14:29;99469.00;;;9.69;100.00
12799;BME280;19250;42.646;26.980;2023-05-10T02:16:58;99464.13;;;9.65;100.00
12799;BME280;19250;42.646;26.980;2023-05-10T02:19:26;99467.63;;;9.56;100.00
12799;BME280;19250;42.646;26.980;2023-05-10T02:21:55;99464.41;;;9.43;100.00
12799;BME280;19250;42.646;26.980;2023-05-10T02:24:22;99465.38;;;9.51;100.00
12799;BME280;19250;42.646;26.980;2023-05-10T02:26:50;99463.69;;;9.69;100.00
12799;BME280;19250;42.646;26.980;2023-05-10T02:29:18;99468.31;;;9.87;100.00
12799;BME280;19250;42.646;26.980;2023-05-10T02:31:46;99466.09;;;9.63;100.00
12799;BME280;19250;42.646;26.980;2023-05-10T02:34:14;99469.59;;;9.44;100.00
12799;BME280;19250;42.646;26.980;2023-05-10T02:36:42;99455.72;;;9.60;100.00
12799;BME280;19250;42.646;26.980;2023-05-10T02:39:11;99463.16;;;9.56;100.00
12799;BME280;19250;42.646;26.980;2023-05-10T02:41:40;99465.94;;;9.64;100.00
12799;BME280;19250;42.646;26.980;2023-05-10T02:44:08;99466.34;;;9.69;100.00
12799;BME280;19250;42.646;26.980;2023-05-10T02:46:36;99467.59;;;9.84;100.00
12799;BME280;19250;42.646;26.980;2023-05-10T02:49:04;99467.84;;;9.91;100.00
12799;BME280;19250;42.646;26.980;2023-05-10T02:51:32;99447.69;;;9.69;100.00
12799;BME280;19250;42.646;26.980;2023-05-10T02:54:06;99460.72;;;9.72;100.00
12799;BME280;19250;42.646;26.980;2023-05-10T02:56:36;99419.44;;;9.40;100.00
12799;BME280;19250;42.646;26.980;2023-05-10T02:59:07;99459.19;;;9.79;100.00
12799;BME280;19250;42.646;26.980;2023-05-10T03:01:34;99470.56;;;9.72;100.00
12799;BME280;19250;42.646;26.980;2023-05-10T03:04:03;99465.09;;;9.54;100.00
12799;BME280;19250;42.646;26.980;2023-05-10T03:06:30;99469.69;;;9.23;100.00
12799;BME280;19250;42.646;26.980;2023-05-10T03:08:58;99465.06;;;9.06;100.00
12799;BME280;19250;42.646;26.980;2023-05-10T03:11:39;99466.31;;;9.02;100.00
12799;BME280;19250;42.646;26.980;2023-05-10T03:14:23;99461.63;;;8.75;100.00
12799;BME280;19250;42.646;26.980;2023-05-10T03:16:58;99473.75;;;9.18;100.00
12799;BME280;19250;42.646;26.980;2023-05-10T03:19:30;99472.22;;;9.25;100.00
12799;BME280;19250;42.646;26.980;2023-05-10T03:22:02;99472.09;;;9.36;100.00
12799;BME280;19250;42.646;26.980;2023-05-10T03:24:32;99469.59;;;9.44;100.00
12799;BME280;19250;42.646;26.980;2023-05-10T03:27:03;99473.09;;;9.35;100.00
12799;BME280;19250;42.646;26.980;2023-05-10T03:29:32;99405.00;;;9.04;100.00
12799;BME280;19250;42.646;26.980;2023-05-10T03:31:59;99461.03;;;9.31;100.00
12799;BME280;19250;42.646;26.980;2023-05-10T03:34:27;99465.50;;;9.02;100.00
12799;BME280;19250;42.646;26.980;2023-05-10T03:36:56;99459.19;;;9.12;100.00
12799;BME280;19250;42.646;26.980;2023-05-10T03:39:24;99462.00;;;9.30;100.00
12799;BME280;19250;42.646;26.980;2023-05-10T03:41:51;99473.50;;;9.59;100.00
12799;BME280;19250;42.646;26.980;2023-05-10T03:44:20;99472.50;;;9.70;100.00
12799;BME280;19250;42.646;26.980;2023-05-10T03:47:04;99483.13;;;9.99;100.00
12799;BME280;19250;42.646;26.980;2023-05-10T03:49:32;99485.78;;;10.08;100.00
12799;BME280;19250;42.646;26.980;2023-05-10T03:51:59;99488.75;;;10.15;100.00
12799;BME280;19250;42.646;26.980;2023-05-10T03:54:26;99489.66;;;10.43;100.00
12799;BME280;19250;42.646;26.980;2023-05-10T03:56:53;99487.41;;;10.38;100.00
12799;BME280;19250;42.646;26.980;2023-05-10T03:59:22;99489.78;;;10.41;100.00
12799;BME280;19250;42.646;26.980;2023-05-10T04:01:49;99489.66;;;10.43;100.00
12799;BME280;19250;42.646;26.980;2023-05-10T04:04:17;99484.06;;;10.73;100.00
12799;BME280;19250;42.646;26.980;2023-05-10T04:06:46;99481.59;;;10.52;100.00
12799;BME280;19250;42.646;26.980;2023-05-10T04:09:13;99490.31;;;10.81;100.00
12799;BME280;19250;42.646;26.980;2023-05-10T04:11:40;99491.84;;;11.11;100.00
12799;BME280;19250;42.646;26.980;2023-05-10T04:14:08;99491.97;;;10.82;100.00
12799;BME280;19250;42.646;26.980;2023-05-10T04:16:36;99492.94;;;11.18;100.00
12799;BME280;19250;42.646;26.980;2023-05-10T04:19:03;99497.06;;;11.30;100.00
12799;BME280;19250;42.646;26.980;2023-05-10T04:21:31;99492.47;;;11.23;100.00
12799;BME280;19250;42.646;26.980;2023-05-10T04:23:58;99498.69;;;11.14;100.00
12799;BME280;19250;42.646;26.980;2023-05-10T04:26:25;99495.59;;;11.18;100.00
12799;BME280;19250;42.646;26.980;2023-05-10T04:28:53;99500.75;;;11.02;100.00
12799;BME280;19250;42.646;26.980;2023-05-10T04:31:20;99489.47;;;11.26;100.00
12799;BME280;19250;42.646;26.980;2023-05-10T04:33:49;99491.78;;;11.56;100.00
12799;BME280;19250;42.646;26.980;2023-05-10T04:36:16;99490.88;;;11.65;100.00
12799;BME280;19250;42.646;26.980;2023-05-10T04:38:44;99494.47;;;11.56;100.00
12799;BME280;19250;42.646;26.980;2023-05-10T04:41:11;99494.16;;;11.59;100.00
12799;BME280;19250;42.646;26.980;2023-05-10T04:43:38;99496.75;;;11.33;100.00
12799;BME280;19250;42.646;26.980;2023-05-10T04:46:05;99495.31;;;11.39;100.00
12799;BME280;19250;42.646;26.980;2023-05-10T04:48:33;99501.50;;;11.57;100.00
12799;BME280;19250;42.646;26.980;2023-05-10T04:51:02;99491.66;;;11.75;100.00
12799;BME280;19250;42.646;26.980;2023-05-10T04:53:30;99494.31;;;11.58;100.00
12799;BME280;19250;42.646;26.980;2023-05-10T04:55:57;99491.97;;;11.72;100.00
12799;BME280;19250;42.646;26.980;2023-05-10T04:58:25;99493.59;;;11.83;100.00
12799;BME280;19250;42.646;26.980;2023-05-10T05:00:52;99499.69;;;12.19;100.00
12799;BME280;19250;42.646;26.980;2023-05-10T05:03:19;99494.59;;;12.33;100.00
12799;BME280;19250;42.646;26.980;2023-05-10T05:05:47;99498.41;;;12.23;100.00
12799;BME280;19250;42.646;26.980;2023-05-10T05:08:16;99496.66;;;12.14;100.00
12799;BME280;19250;42.646;26.980;2023-05-10T05:10:43;99496.13;;;12.36;100.00
12799;BME280;19250;42.646;26.980;2023-05-10T05:13:12;99493.72;;;12.25;100.00
12799;BME280;19250;42.646;26.980;2023-05-10T05:15:39;99490.94;;;12.09;100.00
12799;BME280;19250;42.646;26.980;2023-05-10T05:18:06;99498.75;;;12.53;100.00
12799;BME280;19250;42.646;26.980;2023-05-10T05:20:33;99487.78;;;12.65;100.00
12799;BME280;19250;42.646;26.980;2023-05-10T05:23:00;99482.72;;;12.95;100.00
12799;BME280;19250;42.646;26.980;2023-05-10T05:25:29;99479.31;;;12.77;100.00
12799;BME280;19250;42.646;26.980;2023-05-10T05:27:56;99483.25;;;12.99;100.00
12799;BME280;19250;42.646;26.980;2023-05-10T05:30:23;99480.72;;;12.97;100.00
12799;BME280;19250;42.646;26.980;2023-05-10T05:32:49;99485.66;;;12.17;100.00
12799;BME280;19250;42.646;26.980;2023-05-10T05:35:16;99489.75;;;12.29;100.00
12799;BME280;19250;42.646;26.980;2023-05-10T05:37:43;99484.78;;;12.42;100.00
12799;BME280;19250;42.646;26.980;2023-05-10T05:40:12;99490.25;;;12.32;100.00
12799;BME280;19250;42.646;26.980;2023-05-10T05:42:40;99493.84;;;12.41;100.00
12799;BME280;19250;42.646;26.980;2023-05-10T05:45:07;99496.44;;;12.59;100.00
12799;BME280;19250;42.646;26.980;2023-05-10T05:47:38;99494.34;;;12.78;100.00
12799;BME280;19250;42.646;26.980;2023-05-10T05:50:05;99496.56;;;12.91;100.00
12799;BME280;19250;42.646;26.980;2023-05-10T05:52:32;99499.34;;;12.73;100.00
12799;BME280;19250;42.646;26.980;2023-05-10T05:54:59;99507.06;;;13.10;100.00
12799;BME280;19250;42.646;26.980;2023-05-10T05:57:26;99506.94;;;13.20;100.00
12799;BME280;19250;42.646;26.980;2023-05-10T05:59:54;99509.94;;;13.25;100.00
12799;BME280;19250;42.646;26.980;2023-05-10T06:02:21;99512.72;;;13.57;100.00
12799;BME280;19250;42.646;26.980;2023-05-10T06:04:48;99514.88;;;13.45;100.00
12799;BME280;19250;42.646;26.980;2023-05-10T06:07:15;99524.69;;;13.21;100.00
12799;BME280;19250;42.646;26.980;2023-05-10T06:09:42;99526.44;;;13.54;100.00
12799;BME280;19250;42.646;26.980;2023-05-10T06:12:09;99528.13;;;13.71;100.00
12799;BME280;19250;42.646;26.980;2023-05-10T06:14:36;99531.31;;;13.83;100.00
12799;BME280;19250;42.646;26.980;2023-05-10T06:17:05;99526.09;;;13.57;100.00
12799;BME280;19250;42.646;26.980;2023-05-10T06:19:32;99518.03;;;13.49;100.00
12799;BME280;19250;42.646;26.980;2023-05-10T06:21:59;99527.47;;;13.93;100.00
12799;BME280;19250;42.646;26.980;2023-05-10T06:24:26;99532.84;;;14.17;100.00
12799;BME280;19250;42.646;26.980;2023-05-10T06:26:53;99530.84;;;14.36;100.00
12799;BME280;19250;42.646;26.980;2023-05-10T06:29:20;99529.66;;;14.14;100.00
12799;BME280;19250;42.646;26.980;2023-05-10T06:31:47;99533.00;;;14.32;100.00
12799;BME280;19250;42.646;26.980;2023-05-10T06:34:15;99535.19;;;14.45;100.00
12799;BME280;19250;42.646;26.980;2023-05-10T06:36:42;99525.75;;;14.73;94.67
12799;BME280;19250;42.646;26.980;2023-05-10T06:39:09;99540.22;;;14.48;95.77
12799;BME280;19250;42.646;26.980;2023-05-10T06:41:37;99541.56;;;14.19;96.21
12799;BME280;19250;42.646;26.980;2023-05-10T06:44:04;99542.75;;;14.33;96.41
12799;BME280;19250;42.646;26.980;2023-05-10T06:46:31;99553.81;;;14.54;92.97
12799;BME280;19250;42.646;26.980;2023-05-10T06:48:57;99547.44;;;14.55;93.43
12799;BME280;19250;42.646;26.980;2023-05-10T06:51:26;99551.59;;;14.66;92.57
12799;BME280;19250;42.646;26.980;2023-05-10T06:53:52;99549.59;;;14.19;96.58
12799;BME280;19250;42.646;26.980;2023-05-10T06:56:20;99543.84;;;14.79;92.97
12799;BME280;19250;42.646;26.980;2023-05-10T06:58:47;99540.38;;;14.54;94.07
12799;BME280;19250;42.646;26.980;2023-05-10T07:01:13;99541.56;;;14.28;95.60
12799;BME280;19250;42.646;26.980;2023-05-10T07:03:40;99538.72;;;14.37;94.65
12799;BME280;19250;42.646;26.980;2023-05-10T07:06:07;99536.19;;;14.11;94.81
12799;BME280;19250;42.646;26.980;2023-05-10T07:08:36;99539.53;;;14.30;93.29
12799;BME280;19250;42.646;26.980;2023-05-10T07:11:03;99544.06;;;14.13;93.45
12799;BME280;19250;42.646;26.980;2023-05-10T07:13:30;99541.72;;;14.18;93.28
12799;BME280;19250;42.646;26.980;2023-05-10T07:15:57;99546.59;;;14.55;92.31
12799;BME280;19250;42.646;26.980;2023-05-10T07:18:24;99539.22;;;14.25;90.96
12799;BME280;19250;42.646;26.980;2023-05-10T07:20:51;99547.94;;;14.43;88.34
12799;BME280;19250;42.646;26.980;2023-05-10T07:23:18;99546.25;;;14.50;87.51
12799;BME280;19250;42.646;26.980;2023-05-10T07:25:46;99552.34;;;14.99;85.33
12799;BME280;19250;42.646;26.980;2023-05-10T07:28:13;99546.13;;;15.37;81.86
12799;BME280;19250;42.646;26.980;2023-05-10T07:30:42;99552.59;;;15.82;75.84
12799;BME280;19250;42.646;26.980;2023-05-10T07:33:09;99566.00;;;14.73;75.66
12799;BME280;19250;42.646;26.980;2023-05-10T07:35:37;99558.81;;;14.57;74.05
12799;BME280;19250;42.646;26.980;2023-05-10T07:38:04;99559.66;;;14.26;79.30
12799;BME280;19250;42.646;26.980;2023-05-10T07:40:31;99559.69;;;14.42;80.67
12799;BME280;19250;42.646;26.980;2023-05-10T07:43:00;99559.31;;;14.04;83.34
12799;BME280;19250;42.646;26.980;2023-05-10T07:45:27;99558.19;;;14.39;80.00
12799;BME280;19250;42.646;26.980;2023-05-10T07:47:54;99556.41;;;14.95;78.32
12799;BME280;19250;42.646;26.980;2023-05-10T07:50:21;99562.47;;;15.27;73.22
12799;BME280;19250;42.646;26.980;2023-05-10T07:52:48;99567.09;;;15.50;73.80
12799;BME280;19250;42.646;26.980;2023-05-10T07:55:15;99550.78;;;15.12;77.30
12799;BME280;19250;42.646;26.980;2023-05-10T07:57:42;99560.09;;;15.33;74.24
12799;BME280;19250;42.646;26.980;2023-05-10T08:00:11;99560.06;;;15.41;67.66
12799;BME280;19250;42.646;26.980;2023-05-10T08:02:38;99566.25;;;15.49;67.52
12799;BME280;19250;42.646;26.980;2023-05-10T08:05:05;99563.66;;;14.78;67.56
12799;BME280;19250;42.646;26.980;2023-05-10T08:07:32;99565.31;;;14.71;70.96
12799;BME280;19250;42.646;26.980;2023-05-10T08:09:59;99559.69;;;15.13;72.29
12799;BME280;19250;42.646;26.980;2023-05-10T08:12:26;99553.44;;;15.20;71.59
12799;BME280;19250;42.646;26.980;2023-05-10T08:14:53;99564.00;;;15.61;68.71
12799;BME280;19250;42.646;26.980;2023-05-10T08:17:21;99558.91;;;15.74;66.84
12799;BME280;19250;42.646;26.980;2023-05-10T08:19:48;99560.66;;;15.59;66.18
12799;BME280;19250;42.646;26.980;2023-05-10T08:22:15;99566.06;;;15.51;66.94
12799;BME280;19250;42.646;26.980;2023-05-10T08:24:42;99567.25;;;15.09;70.51
12799;BME280;19250;42.646;26.980;2023-05-10T08:27:09;99563.88;;;15.15;67.68
12799;BME280;19250;42.646;26.980;2023-05-10T08:29:36;99559.84;;;15.19;68.77
12799;BME280;19250;42.646;26.980;2023-05-10T08:32:04;99565.66;;;15.31;64.14
12799;BME280;19250;42.646;26.980;2023-05-10T08:34:32;99562.56;;;15.42;64.74
12799;BME280;19250;42.646;26.980;2023-05-10T08:36:59;99574.31;;;15.49;64.82
12799;BME280;19250;42.646;26.980;2023-05-10T08:39:26;99567.44;;;15.77;65.75
12799;BME280;19250;42.646;26.980;2023-05-10T08:41:53;99567.34;;;15.63;65.73
12799;BME280;19250;42.646;26.980;2023-05-10T08:44:20;99568.53;;;15.60;65.47
12799;BME280;19250;42.646;26.980;2023-05-10T08:46:47;99572.22;;;15.20;66.05
12799;BME280;19250;42.646;26.980;2023-05-10T08:49:18;99569.38;;;15.22;66.83
12799;BME280;19250;42.646;26.980;2023-05-10T08:51:49;99569.09;;;15.09;66.23
12799;BME280;19250;42.646;26.980;2023-05-10T08:54:17;99563.03;;;15.54;65.28
12799;BME280;19250;42.646;26.980;2023-05-10T08:56:44;99560.44;;;15.30;64.05
12799;BME280;19250;42.646;26.980;2023-05-10T08:59:10;99562.50;;;15.19;61.19
12799;BME280;19250;42.646;26.980;2023-05-10T09:01:39;99566.56;;;15.54;61.56
12799;BME280;19250;42.646;26.980;2023-05-10T09:04:06;99563.44;;;15.96;55.76
12799;BME280;19250;42.646;26.980;2023-05-10T09:06:34;99560.25;;;15.70;58.04
12799;BME280;19250;42.646;26.980;2023-05-10T09:09:02;99568.44;;;15.99;58.48
12799;BME280;19250;42.646;26.980;2023-05-10T09:11:29;99558.97;;;16.11;57.33
12799;BME280;19250;42.646;26.980;2023-05-10T09:13:56;99561.88;;;16.24;55.74
12799;BME280;19250;42.646;26.980;2023-05-10T09:16:23;99554.59;;;15.65;58.38
12799;BME280;19250;42.646;26.980;2023-05-10T09:18:50;99547.41;;;16.03;59.83
12799;BME280;19250;42.646;26.980;2023-05-10T09:21:18;99558.06;;;16.19;59.40
12799;BME280;19250;42.646;26.980;2023-05-10T09:23:45;99551.59;;;15.83;60.30
12799;BME280;19250;42.646;26.980;2023-05-10T09:26:16;99564.41;;;15.42;61.49
12799;BME280;19250;42.646;26.980;2023-05-10T09:28:52;99498.22;;;15.49;59.52
12799;BME280;19250;42.646;26.980;2023-05-10T09:31:19;99564.50;;;15.64;61.06
12799;BME280;19250;42.646;26.980;2023-05-10T09:33:48;99557.41;;;15.71;62.97
12799;BME280;19250;42.646;26.980;2023-05-10T09:36:15;99563.72;;;15.56;62.60
12799;BME280;19250;42.646;26.980;2023-05-10T09:38:46;99556.94;;;15.21;64.59
12799;BME280;19250;42.646;26.980;2023-05-10T09:41:19;99558.84;;;15.51;63.13
12799;BME280;19250;42.646;26.980;2023-05-10T09:43:47;99550.72;;;15.29;64.46
12799;BME280;19250;42.646;26.980;2023-05-10T09:46:15;99556.53;;;15.40;62.88
12799;BME280;19250;42.646;26.980;2023-05-10T09:48:44;99552.78;;;16.03;59.80
12799;BME280;19250;42.646;26.980;2023-05-10T09:51:19;99554.19;;;16.36;58.02
12799;BME280;19250;42.646;26.980;2023-05-10T09:53:46;99550.78;;;17.23;54.30
12799;BME280;19250;42.646;26.980;2023-05-10T09:56:35;99555.84;;;17.48;51.32
12799;BME280;19250;42.646;26.980;2023-05-10T09:59:04;99550.59;;;18.39;46.67
12799;BME280;19250;42.646;26.980;2023-05-10T10:01:32;99537.31;;;18.99;44.35
12799;BME280;19250;42.646;26.980;2023-05-10T10:04:02;99548.88;;;18.31;43.80
12799;BME280;19250;42.646;26.980;2023-05-10T10:06:35;99549.59;;;17.98;46.46
12799;BME280;19250;42.646;26.980;2023-05-10T10:09:04;99549.22;;;17.50;49.46
12799;BME280;19250;42.646;26.980;2023-05-10T10:11:31;99551.97;;;16.77;54.52
12799;BME280;19250;42.646;26.980;2023-05-10T10:14:01;99553.38;;;17.02;53.54
12799;BME280;19250;42.646;26.980;2023-05-10T10:16:29;99527.63;;;16.70;53.53
12799;BME280;19250;42.646;26.980;2023-05-10T10:18:57;99545.00;;;16.30;55.66
12799;BME280;19250;42.646;26.980;2023-05-10T10:21:24;99544.09;;;16.38;53.03
12799;BME280;19250;42.646;26.980;2023-05-10T10:23:52;99540.09;;;16.57;52.59
12799;BME280;19250;42.646;26.980;2023-05-10T10:26:20;99544.66;;;16.85;52.15
12799;BME280;19250;42.646;26.980;2023-05-10T10:28:52;99533.59;;;16.95;51.20
12799;BME280;19250;42.646;26.980;2023-05-10T10:31:30;99539.34;;;16.92;51.39
12799;BME280;19250;42.646;26.980;2023-05-10T10:34:01;99546.97;;;16.88;52.68
12799;BME280;19250;42.646;26.980;2023-05-10T10:36:30;99537.38;;;15.74;57.71
12799;BME280;19250;42.646;26.980;2023-05-10T10:39:00;99543.97;;;15.71;60.01
12799;BME280;19250;42.646;26.980;2023-05-10T10:41:32;99513.19;;;15.74;61.79
12799;BME280;19250;42.646;26.980;2023-05-10T10:47:24;99533.00;;;15.42;67.48
12799;BME280;19250;42.646;26.980;2023-05-10T10:50:03;99528.28;;;16.58;60.07
12799;BME280;19250;42.646;26.980;2023-05-10T10:52:32;99530.09;;;16.05;58.90
12799;BME280;19250;42.646;26.980;2023-05-10T10:55:01;99532.72;;;16.13;61.39
12799;BME280;19250;42.646;26.980;2023-05-10T10:57:32;99537.41;;;16.49;58.27
12799;BME280;19250;42.646;26.980;2023-05-10T11:00:22;99539.09;;;16.50;51.06
12799;BME280;19250;42.646;26.980;2023-05-10T11:02:53;99544.75;;;17.93;44.38
12799;BME280;19250;42.646;26.980;2023-05-10T11:05:34;99543.31;;;18.61;43.80
12799;BME280;19250;42.646;26.980;2023-05-10T11:08:09;99542.72;;;18.99;40.60
12799;BME280;19250;42.646;26.980;2023-05-10T11:10:36;99536.63;;;18.57;41.68
12799;BME280;19250;42.646;26.980;2023-05-10T11:13:06;99549.44;;;17.49;48.47
12799;BME280;19250;42.646;26.980;2023-05-10T11:15:35;99534.41;;;17.25;50.30
12799;BME280;19250;42.646;26.980;2023-05-10T11:18:19;99547.69;;;16.68;53.06
12799;BME280;19250;42.646;26.980;2023-05-10T11:20:50;99546.22;;;16.43;55.32
12799;BME280;19250;42.646;26.980;2023-05-10T11:23:18;99535.97;;;16.61;55.15
12799;BME280;19250;42.646;26.980;2023-05-10T11:25:47;99533.25;;;16.46;55.97
12799;BME280;19250;42.646;26.980;2023-05-10T11:28:17;99522.19;;;16.41;53.69
12799;BME280;19250;42.646;26.980;2023-05-10T11:30:44;99520.22;;;16.72;53.54
12799;BME280;19250;42.646;26.980;2023-05-10T11:33:17;99526.34;;;17.46;48.79
12799;BME280;19250;42.646;26.980;2023-05-10T11:35:45;99523.16;;;17.72;46.42
12799;BME280;19250;42.646;26.980;2023-05-10T11:38:13;99533.91;;;18.57;45.43
12799;BME280;19250;42.646;26.980;2023-05-10T11:40:40;99528.22;;;19.41;43.64
12799;BME280;19250;42.646;26.980;2023-05-10T11:43:09;99517.88;;;19.71;43.66
12799;BME280;19250;42.646;26.980;2023-05-10T11:45:37;99531.19;;;19.60;41.46
12799;BME280;19250;42.646;26.980;2023-05-10T11:48:05;99541.16;;;18.77;42.12
12799;BME280;19250;42.646;26.980;2023-05-10T11:50:34;99543.50;;;18.59;43.21
12799;BME280;19250;42.646;26.980;2023-05-10T11:53:01;99527.00;;;17.63;49.43
12799;BME280;19250;42.646;26.980;2023-05-10T11:55:28;99523.88;;;17.80;50.14
12799;BME280;19250;42.646;26.980;2023-05-10T11:58:01;99524.69;;;17.60;52.07
12799;BME280;19250;42.646;26.980;2023-05-10T12:00:29;99523.25;;;17.13;53.38
12799;BME280;19250;42.646;26.980;2023-05-10T12:02:57;99519.38;;;16.72;59.73
12799;BME280;19250;42.646;26.980;2023-05-10T12:05:25;99516.88;;;16.85;61.63
12799;BME280;19250;42.646;26.980;2023-05-10T12:08:10;99506.94;;;16.56;61.57
12799;BME280;19250;42.646;26.980;2023-05-10T12:10:38;99500.31;;;17.17;56.42
12799;BME280;19250;42.646;26.980;2023-05-10T12:13:05;99504.81;;;17.31;55.69
12799;BME280;19250;42.646;26.980;2023-05-10T12:15:34;99503.50;;;17.78;53.11
12799;BME280;19250;42.646;26.980;2023-05-10T12:18:01;99495.25;;;17.79;52.10
12799;BME280;19250;42.646;26.980;2023-05-10T12:20:29;99503.13;;;17.09;53.36
12799;BME280;19250;42.646;26.980;2023-05-10T12:22:58;99507.13;;;17.85;52.65
12799;BME280;19250;42.646;26.980;2023-05-10T12:25:30;99488.34;;;17.56;53.43
12799;BME280;19250;42.646;26.980;2023-05-10T12:27:59;99506.06;;;17.86;52.67
12799;BME280;19250;42.646;26.980;2023-05-10T12:30:28;99508.19;;;17.33;57.49
12799;BME280;19250;42.646;26.980;2023-05-10T12:33:00;99503.59;;;17.49;59.03
12799;BME280;19250;42.646;26.980;2023-05-10T12:35:30;99486.84;;;19.07;51.67
12799;BME280;19250;42.646;26.980;2023-05-10T12:37:59;99487.50;;;19.15;48.25
12799;BME280;19250;42.646;26.980;2023-05-10T12:40:26;99493.31;;;19.12;47.10
12799;BME280;19250;42.646;26.980;2023-05-10T12:42:53;99493.78;;;19.89;46.14
12799;BME280;19250;42.646;26.980;2023-05-10T12:45:20;99492.53;;;20.05;43.96
12799;BME280;19250;42.646;26.980;2023-05-10T12:47:48;99486.28;;;20.11;44.32
12799;BME280;19250;42.646;26.980;2023-05-10T12:50:15;99486.50;;;19.96;41.89
12799;BME280;19250;42.646;26.980;2023-05-10T12:52:42;99486.00;;;19.06;43.80
12799;BME280;19250;42.646;26.980;2023-05-10T12:55:11;99484.81;;;19.89;43.55
12799;BME280;19250;42.646;26.980;2023-05-10T12:57:38;99479.25;;;20.36;43.40
12799;BME280;19250;42.646;26.980;2023-05-10T13:00:07;99482.94;;;21.77;39.62